Flight Track Log - Related Links

Times and Time Zones

All times are in EDT time to prevent confusion due to time zone crossing. See the N3840U flight status page for this flight to view local times or setup timezone preferences in your user account.

Time Position Orientation Groundspeed Altitude Reporting Facility
EDT Latitude Longitude Course Direction KTS MPH feet Rate Location/Type
Sun 11:50:00 AM 30.6377 -86.4375 North  Level FlightAware Approximate
Sun 11:51:00 AM 30.6716 -86.4333 North  Level FlightAware Approximate
Sun 11:52:00 AM 30.7058 -86.4333 360° North  Level FlightAware Approximate
Sun 11:53:00 AM 30.7399 -86.4326 North  Level FlightAware Approximate
Sun 11:54:00 AM 30.7739 -86.4288 North  Level FlightAware Approximate
Sun 11:55:00 AM 30.8079 -86.4251 North  Level FlightAware Approximate
Sun 11:55:44 AM 30.7783 -86.4564 North 126 145 9,000  Level Jacksonville Center
Sun 11:56:00 AM 30.8419 -86.4213 North  Level FlightAware Approximate
Sun 11:56:33 AM 30.8139 -86.4531 North 155 178 8,900  Level Jacksonville Center
Sun 11:57:00 AM 30.8758 -86.4175 North  Level FlightAware Approximate
Sun 11:57:40 AM 30.8619 -86.4500 North 158 182 8,900  Level Jacksonville Center
Sun 11:58:00 AM 30.9098 -86.4137 North  Level FlightAware Approximate
Sun 11:58:46 AM 30.9061 -86.4419 North 156 180 8,900  Level Jacksonville Center
Sun 11:59:00 AM 30.9438 -86.4100 North  Level FlightAware Approximate
Sun 11:59:47 AM 30.9522 -86.4364 North 157 181 8,900  Level Jacksonville Center
Sun 12:00:00 PM 30.9778 -86.4062 North  Level FlightAware Approximate
Sun 12:00:48 PM 30.9981 -86.4308 North 159 183 9,000  Level Jacksonville Center
Sun 12:01:00 PM 31.0118 -86.4024 North  Level FlightAware Approximate
Sun 12:01:54 PM 31.0464 -86.4231 North 162 186 9,000  Level Jacksonville Center
Sun 12:03:00 PM 31.0837 -86.4176 North  Level FlightAware Approximate
Sun 12:03:55 PM 31.1386 -86.4142 North 160 184 8,900  Level Jacksonville Center
Sun 12:04:56 PM 31.1825 -86.4111 North 163 188 8,900  Level Jacksonville Center
Sun 12:05:57 PM 31.2264 -86.4056 North 159 183 8,900  Level Jacksonville Center
Sun 12:06:57 PM 31.2706 -86.3997 North 157 181 8,900  Level Jacksonville Center
Sun 12:07:58 PM 31.3164 -86.3942 North 158 182 8,900  Level Jacksonville Center
Sun 12:08:53 PM 31.3564 -86.3908 North 157 181 8,900  Level Jacksonville Center
Sun 12:10:05 PM 31.4086 -86.3856 North 161 185 8,900  Level Jacksonville Center
Sun 12:12:01 PM 31.4944 -86.3767 North 158 182 8,900  Level Jacksonville Center
Sun 12:12:55 PM 31.5322 -86.3706 North 159 183 8,900  Level Jacksonville Center
Sun 12:13:56 PM 31.5783 -86.3650 North 158 182 8,900  Level Jacksonville Center
Sun 12:14:50 PM 31.6161 -86.3592 North 157 181 8,900  Level Jacksonville Center
Sun 12:15:51 PM 31.6578 -86.3558 North 157 181 8,900 Level Jacksonville Center
Sun 12:17:00 PM 31.6962 -86.3463 12° North  Level FlightAware Approximate
Sun 12:24:00 PM 31.9319 -86.2953 North  Level FlightAware Approximate
Sun 12:25:00 PM 31.9660 -86.2919 North  Level FlightAware Approximate
Sun 12:26:00 PM 32.0000 -86.2886 North  Level FlightAware Approximate
Sun 12:27:00 PM 32.0340 -86.2853 North  Level FlightAware Approximate
Sun 12:28:00 PM 32.0681 -86.2820 North  Level FlightAware Approximate
Sun 12:29:00 PM 32.1021 -86.2787 North  Level FlightAware Approximate
Sun 12:30:00 PM 32.1361 -86.2753 North  Level FlightAware Approximate
Sun 12:31:00 PM 32.1701 -86.2720 North  Level FlightAware Approximate
Sun 12:32:00 PM 32.2042 -86.2687 North  Level FlightAware Approximate
Sun 12:33:00 PM 32.2382 -86.2653 North  Level FlightAware Approximate
Sun 12:34:00 PM 32.2722 -86.2620 North  Level FlightAware Approximate
Sun 12:35:00 PM 32.3063 -86.2587 North  Level FlightAware Approximate
Sun 12:36:00 PM 32.3403 -86.2553 North  Level FlightAware Approximate
Sun 12:37:00 PM 32.3743 -86.2520 North  Level FlightAware Approximate
Sun 12:38:00 PM 32.4084 -86.2486 North  Level FlightAware Approximate
Sun 12:39:00 PM 32.4424 -86.2453 North  Level FlightAware Approximate
Sun 12:40:00 PM 32.4764 -86.2419 North  Level FlightAware Approximate
Sun 12:41:00 PM 32.5104 -86.2385 North  Level FlightAware Approximate
Sun 12:42:00 PM 32.5445 -86.2352 North  Level FlightAware Approximate
Sun 12:43:00 PM 32.5785 -86.2318 North  Level FlightAware Approximate
Sun 12:44:00 PM 32.6125 -86.2285 North  Level FlightAware Approximate
Sun 12:45:00 PM 32.6466 -86.2251 North  Level FlightAware Approximate
Sun 12:45:10 PM 32.9153 -86.2114 North 158 182 9,000  Level Atlanta Center
Sun 12:46:00 PM 32.6806 -86.2217 North  Level FlightAware Approximate
Sun 12:46:10 PM 32.9592 -86.2075 North 158 182 9,000  Level Atlanta Center
Sun 12:47:00 PM 32.7146 -86.2184 North  Level FlightAware Approximate
Sun 12:47:10 PM 33.0031 -86.2011 North 163 188 9,000  Level Atlanta Center
Sun 12:48:00 PM 32.7486 -86.2150 North  Level FlightAware Approximate
Sun 12:48:11 PM 33.0511 -86.2000 North 163 188 9,000  Level Atlanta Center
Sun 12:49:00 PM 32.7827 -86.2116 North  Level FlightAware Approximate
Sun 12:49:42 PM 33.1200 -86.1942 North 161 185 9,000  Level Atlanta Center
Sun 12:50:37 PM 33.1578 -86.1878 North 160 184 9,000 -52 Level Atlanta Center
Sun 12:51:37 PM 33.2036 -86.1914 356° North 157 181 8,900 -347 Descending Atlanta Center
Sun 12:52:38 PM 33.2492 -86.2072 344° North 169 194 8,300 -492 Descending Atlanta Center
Sun 12:53:39 PM 33.2950 -86.2183 349° North 172 198 7,900 -397 Descending Atlanta Center
Sun 12:54:39 PM 33.3386 -86.2294 348° North 164 189 7,500 -472 Descending Atlanta Center
Sun 12:55:46 PM 33.3906 -86.2456 345° North 163 188 6,900 -557 Descending Atlanta Center
Sun 12:56:59 PM 33.4467 -86.2544 352° North 168 193 6,200 -606 Descending Atlanta Center
Sun 12:57:35 PM 33.4736 -86.2653 341° North 167 192 5,800 -680 Descending Atlanta Center
Sun 12:58:36 PM 33.5194 -86.2714 354° North 167 192 5,100 -414 Descending Atlanta Center
Sun 12:59:31 PM 33.5611 -86.2800 350° North 161 185 5,000 -43 Descending Atlanta Center
Sun 01:00:56 PM 33.6175 -86.2739 North 158 182 5,000  Level Atlanta Center
Sun 01:01:56 PM 33.6597 -86.2500 25° Northeast 159 183 5,000 -50 Level Atlanta Center
Sun 01:02:57 PM 33.6978 -86.2236 30° Northeast 163 188 4,900 -98 Descending Atlanta Center

Login

Don't have an account? Register now (free) for customized features, flight alerts, and more!